This is the latest recevied weather packets stored in our database for station/object KC4MCQ-10. If no packets are shown the sender has not sent any weather packets the latest 10 day(s).
| Time | Temp. | Humidity | Pressure | Rain* | Wind** | Luminosity | Snow |
|---|---|---|---|---|---|---|---|
| 1787935055 | 32.22° C | 68% | 1018 hPa | 0.51 mm | 4.02 m/s, 194° | - | - |
| 1787934449 | 31.67° C | 69% | 1018.1 hPa | 0.51 mm | 0.89 m/s, 292° | - | - |
| 1787933846 | 31.67° C | 71% | 1018.1 hPa | 0.51 mm | 0.89 m/s, 261° | - | - |
| 1787933244 | 31.67° C | 74% | 1018.3 hPa | 0.51 mm | 1.79 m/s, 201° | - | - |
| 1787932641 | 30.56° C | 77% | 1018.4 hPa | 0.51 mm | 0.89 m/s, 262° | - | - |
| 1787932040 | 30° C | 80% | 1018.4 hPa | 0.51 mm | 1.79 m/s, 327° | - | - |
| 1787931438 | 30.56° C | 77% | 1018.5 hPa | 0.51 mm | 0.89 m/s, 352° | - | - |
| 1787930837 | 31.11° C | 73% | 1018.4 hPa | 0.51 mm | 0.45 m/s, 202° | - | - |
| 1787930236 | 30.56° C | 76% | 1018.5 hPa | 0.51 mm | 1.34 m/s, 233° | - | - |
| 1787929632 | 30.56° C | 76% | 1018.4 hPa | 0.51 mm | 0.89 m/s, 228° | - | - |
| 1787929029 | 31.11° C | 77% | 1018.5 hPa | 0.51 mm | 0.45 m/s, 223° | - | - |
| 1787928422 | 30.56° C | 78% | 1018.4 hPa | 0.51 mm | 0.89 m/s, 206° | - | - |
| 1787927820 | 30° C | 78% | 1018.4 hPa | 0.51 mm | 1.34 m/s, 253° | - | - |
| 1787927217 | 30° C | 79% | 1018.5 hPa | 0.51 mm | 1.79 m/s, 260° | - | - |
| 1787926617 | 29.44° C | 79% | 1018.3 hPa | 0.51 mm | 1.34 m/s, 202° | - | - |
| 1787925986 | 28.89° C | 80% | 1018.3 hPa | 0.51 mm | 0.89 m/s, 232° | - | - |
| 1787925381 | 28.89° C | 80% | 1018.2 hPa | 0.51 mm | 1.34 m/s, 225° | - | - |
| 1787924780 | 28.89° C | 81% | 1018.2 hPa | 0.51 mm | 1.34 m/s, 223° | - | - |
| 1787924179 | 28.33° C | 82% | 1018.1 hPa | 0.51 mm | 0.89 m/s, 246° | - | - |
| 1787923579 | 27.78° C | 83% | 1018.2 hPa | 0.51 mm | 0.89 m/s, 245° | - | - |
| 1787922977 | 27.22° C | 84% | 1018.1 hPa | 0.51 mm | 0.89 m/s, 246° | - | - |
| 1787922377 | 26.67° C | 86% | 1018.2 hPa | 0.51 mm | 1.34 m/s, 259° | - | - |
| 1787921776 | 26.11° C | 88% | 1018 hPa | 0.51 mm | 0.45 m/s, 227° | - | - |
| 1787919972 | 24.44° C | 92% | 1018.1 hPa | 0.51 mm | 0.45 m/s, 220° | - | - |
| 1787917535 | 23.33° C | 93% | 1017.6 hPa | 0.51 mm | 0.45 m/s, 175° | - | - |
* Rain latest 24 hours (hover to see other rain measurements)
** Current wind speed in m/s (hover to see current wind gust speed)